| time (UTC) | temp F | wind direction | speed MPH | gust MPH | rain 1hr in | rain 24hr in | rain mn in | humidity % | barometer mb |
| 20260504205231 | 65 | 258 | 0.0 | 0.0 | 0.00 | 0.00 | 0.00 | 60 | 1002.5 |
| 20260504204730 | 66 | 257 | 0.0 | 2.0 | 0.00 | 0.00 | 0.00 | 59 | 1002.5 |
| 20260504204229 | 66 | 259 | 0.0 | 2.0 | 0.00 | 0.00 | 0.00 | 59 | 1002.6 |
| 20260504203728 | 66 | 261 | 0.0 | 0.0 | 0.00 | 0.00 | 0.00 | 58 | 1002.5 |
| 20260504203227 | 67 | 257 | 0.0 | 0.0 | 0.00 | 0.00 | 0.00 | 57 | 1002.5 |
| 20260504202726 | 67 | 262 | 0.0 | 2.0 | 0.00 | 0.00 | 0.00 | 57 | 1002.5 |
| 20260504202225 | 67 | 264 | 0.0 | 0.0 | 0.00 | 0.00 | 0.00 | 56 | 1002.5 |
| 20260504201724 | 67 | 263 | 0.0 | 0.0 | 0.00 | 0.00 | 0.00 | 56 | 1002.5 |
| 20260504201223 | 67 | 249 | 0.0 | 0.0 | 0.00 | 0.00 | 0.00 | 56 | 1002.5 |
| 20260504200722 | 67 | 271 | 0.0 | 0.0 | 0.00 | 0.00 | 0.00 | 56 | 1002.5 |
| 20260504200221 | 67 | 258 | 0.0 | 0.0 | 0.00 | 0.00 | 0.00 | 57 | 1002.5 |
| 20260504195720 | 66 | 258 | 0.0 | 0.0 | 0.00 | 0.00 | 0.00 | 58 | 1002.5 |
| 20260504195219 | 66 | 259 | 0.0 | 1.0 | 0.00 | 0.00 | 0.00 | 58 | 1002.5 |
| 20260504194718 | 66 | 263 | 0.0 | 1.0 | 0.00 | 0.00 | 0.00 | 60 | 1002.5 |
| 20260504194217 | 66 | 258 | 0.0 | 0.0 | 0.00 | 0.00 | 0.00 | 60 | 1002.5 |
| 20260504193716 | 66 | 259 | 0.0 | 0.0 | 0.00 | 0.00 | 0.00 | 59 | 1002.4 |
| 20260504193215 | 66 | 264 | 0.0 | 2.0 | 0.00 | 0.00 | 0.00 | 59 | 1002.5 |
| 20260504192715 | 66 | 263 | 0.0 | 0.0 | 0.00 | 0.00 | 0.00 | 60 | 1002.4 |
| 20260504192213 | 66 | 264 | 0.0 | 0.0 | 0.00 | 0.00 | 0.00 | 60 | 1002.5 |
| 20260504191713 | 66 | 260 | 0.0 | 0.0 | 0.00 | 0.00 | 0.00 | 60 | 1002.5 |
| 20260504191212 | 66 | 264 | 0.0 | 0.0 | 0.00 | 0.00 | 0.00 | 60 | 1002.4 |
| 20260504190711 | 66 | 264 | 0.0 | 0.0 | 0.00 | 0.00 | 0.00 | 59 | 1002.5 |
| 20260504190210 | 67 | 287 | 0.0 | 0.0 | 0.00 | 0.00 | 0.00 | 59 | 1002.5 |
| 20260504185709 | 67 | 275 | 0.0 | 0.0 | 0.00 | 0.00 | 0.00 | 58 | 1002.4 |
| 20260504185208 | 67 | 15 | 0.0 | 0.0 | 0.00 | 0.00 | 0.00 | 56 | 1002.4 |
| 20260504184707 | 67 | 281 | 0.0 | 0.0 | 0.00 | 0.00 | 0.00 | 58 | 1002.4 |
| 20260504184206 | 67 | 284 | 0.0 | 0.0 | 0.00 | 0.00 | 0.00 | 57 | 1002.3 |
| 20260504183705 | 67 | 274 | 0.0 | 0.0 | 0.00 | 0.00 | 0.00 | 56 | 1002.3 |
| 20260504183204 | 68 | 292 | 0.0 | 0.0 | 0.00 | 0.00 | 0.00 | 56 | 1002.3 |
| 20260504182703 | 68 | 262 | 0.0 | 0.0 | 0.00 | 0.00 | 0.00 | 55 | 1002.2 |
| 20260504182202 | 68 | 262 | 0.0 | 0.0 | 0.00 | 0.00 | 0.00 | 54 | 1002.2 |
| 20260504181701 | 69 | 262 | 0.0 | 0.0 | 0.00 | 0.00 | 0.00 | 54 | 1002.2 |
| 20260504181200 | 69 | 264 | 0.0 | 0.0 | 0.00 | 0.00 | 0.00 | 52 | 1002.1 |
| 20260504180659 | 70 | 264 | 0.0 | 0.0 | 0.00 | 0.00 | 0.00 | 51 | 1002.1 |
| 20260504180158 | 70 | 264 | 0.0 | 0.0 | 0.00 | 0.00 | 0.00 | 50 | 1002.1 |
| 20260504175657 | 70 | 260 | 0.0 | 0.0 | 0.00 | 0.00 | 0.00 | 49 | 1002.1 |
| 20260504175156 | 71 | 300 | 0.0 | 0.0 | 0.00 | 0.00 | 0.00 | 49 | 1002.1 |
| 20260504174655 | 71 | 264 | 0.0 | 0.0 | 0.00 | 0.00 | 0.00 | 48 | 1002.1 |
| 20260504174155 | 71 | 262 | 0.0 | 0.0 | 0.00 | 0.00 | 0.00 | 47 | 1002.1 |
| 20260504173654 | 72 | 281 | 0.0 | 2.0 | 0.00 | 0.00 | 0.00 | 46 | 1002.1 |
| 20260504173153 | 72 | 277 | 0.0 | 2.0 | 0.00 | 0.00 | 0.00 | 46 | 1002.1 |
| 20260504172651 | 72 | 270 | 0.0 | 1.0 | 0.00 | 0.00 | 0.00 | 46 | 1002.0 |
| 20260504172148 | 72 | 271 | 0.0 | 2.0 | 0.00 | 0.00 | 0.00 | 45 | 1002.1 |
| 20260504171647 | 72 | 248 | 2.0 | 3.0 | 0.00 | 0.00 | 0.00 | 45 | 1002.1 |
| 20260504171146 | 72 | 270 | 2.0 | 4.0 | 0.00 | 0.00 | 0.00 | 45 | 1002.1 |
| 20260504170645 | 73 | 246 | 1.0 | 5.0 | 0.00 | 0.00 | 0.00 | 44 | 1002.1 |
| 20260504170144 | 73 | 261 | 1.0 | 2.0 | 0.00 | 0.00 | 0.00 | 44 | 1002.1 |
| 20260504160132 | 73 | 342 | 2.0 | 4.0 | 0.00 | 0.00 | 0.00 | 43 | 1002.1 |
| 20260504151123 | 74 | 270 | 2.0 | 4.0 | 0.00 | 0.00 | 0.00 | 42 | 1002.2 |
| 20260504150622 | 74 | 270 | 2.0 | 3.0 | 0.00 | 0.00 | 0.00 | 42 | 1002.2 |
| 20260504150120 | 74 | 276 | 3.0 | 5.0 | 0.00 | 0.00 | 0.00 | 42 | 1002.3 |
| 20260504141112 | 75 | 284 | 2.0 | 4.0 | 0.00 | 0.00 | 0.00 | 40 | 1002.4 |
| 20260504140611 | 75 | 246 | 1.0 | 4.0 | 0.00 | 0.00 | 0.00 | 40 | 1002.5 |
| 20260504140110 | 75 | 264 | 2.0 | 6.0 | 0.00 | 0.00 | 0.00 | 40 | 1002.6 |
| 20260504130557 | 77 | 260 | 2.0 | 4.0 | 0.00 | 0.00 | 0.00 | 38 | 1002.8 |
| 20260504110537 | 74 | 0 | 2.0 | 4.0 | 0.00 | 0.00 | 0.00 | 40 | 1003.3 |
| 20260504100526 | 72 | 259 | 3.0 | 5.0 | 0.00 | 0.00 | 0.00 | 43 | 1003.8 |
| 20260504082008 | 70 | 282 | 2.0 | 3.0 | 0.00 | 0.00 | 0.00 | 46 | 1003.4 |
| 20260504081506 | 70 | 246 | 2.0 | 4.0 | 0.00 | 0.00 | 0.00 | 44 | 1003.2 |
| 20260504081005 | 70 | 254 | 1.0 | 4.0 | 0.00 | 0.00 | 0.00 | 44 | 1003.4 |
| 20260504080505 | 69 | 30 | 2.0 | 4.0 | 0.00 | 0.00 | 0.00 | 45 | 1003.5 |
| 20260504050430 | 60 | 282 | 1.0 | 3.0 | 0.00 | 0.00 | 0.00 | 51 | 1002.8 |
| 20260504045929 | 60 | 282 | 1.0 | 2.0 | 0.00 | 0.00 | 0.00 | 52 | 1002.8 |
| 20260504045428 | 59 | 258 | 0.0 | 2.0 | 0.00 | 0.00 | 0.00 | 52 | 1002.7 |
| 20260504044927 | 59 | 258 | 1.0 | 4.0 | 0.00 | 0.00 | 0.00 | 53 | 1002.5 |
| 20260504044427 | 58 | 294 | 1.0 | 3.0 | 0.00 | 0.00 | 0.00 | 54 | 1002.5 |
| 20260504043926 | 58 | 18 | 1.0 | 3.0 | 0.00 | 0.00 | 0.00 | 54 | 1002.5 |
| 20260504043425 | 58 | 24 | 0.0 | 0.0 | 0.00 | 0.00 | 0.00 | 55 | 1002.5 |
| 20260504042924 | 58 | 318 | 1.0 | 2.0 | 0.00 | 0.00 | 0.00 | 55 | 1002.5 |
| 20260504042423 | 57 | 54 | 1.0 | 2.0 | 0.00 | 0.00 | 0.00 | 55 | 1002.5 |
| 20260504041922 | 57 | 12 | 0.0 | 2.0 | 0.00 | 0.00 | 0.00 | 56 | 1002.5 |
| 20260504041421 | 57 | 18 | 0.0 | 2.0 | 0.00 | 0.00 | 0.00 | 56 | 1002.5 |
| 20260504040920 | 57 | 258 | 0.0 | 2.0 | 0.00 | 0.00 | 0.00 | 56 | 1002.3 |
| 20260504040419 | 57 | 108 | 1.0 | 2.0 | 0.00 | 0.00 | 0.00 | 56 | 1002.3 |
| 20260504035918 | 56 | 264 | 1.0 | 3.0 | 0.00 | 0.00 | 0.00 | 56 | 1002.3 |
| 20260504035417 | 56 | 64 | 0.0 | 2.0 | 0.00 | 0.00 | 0.00 | 58 | 1002.3 |
| 20260504034916 | 56 | 90 | 0.0 | 2.0 | 0.00 | 0.00 | 0.00 | 58 | 1002.3 |
| 20260504034415 | 56 | 48 | 0.0 | 1.0 | 0.00 | 0.00 | 0.00 | 58 | 1002.2 |
| 20260504033914 | 57 | 251 | 0.0 | 0.0 | 0.00 | 0.00 | 0.00 | 58 | 1002.1 |
| 20260504033414 | 57 | 240 | 0.0 | 2.0 | 0.00 | 0.00 | 0.00 | 56 | 1002.1 |
| 20260504032912 | 57 | 263 | 0.0 | 0.0 | 0.00 | 0.00 | 0.00 | 56 | 1002.1 |
| 20260504032412 | 57 | 288 | 0.0 | 2.0 | 0.00 | 0.00 | 0.00 | 56 | 1002.1 |
| 20260504031912 | 57 | 276 | 0.0 | 1.0 | 0.00 | 0.00 | 0.00 | 55 | 1002.0 |
| 20260504031410 | 57 | 348 | 0.0 | 0.0 | 0.00 | 0.00 | 0.00 | 55 | 1002.0 |
| 20260504030909 | 57 | 6 | 0.0 | 2.0 | 0.00 | 0.00 | 0.00 | 55 | 1002.1 |
| 20260504030408 | 57 | 60 | 0.0 | 0.0 | 0.00 | 0.00 | 0.00 | 54 | 1002.1 |
| 20260504025907 | 58 | 6 | 0.0 | 0.0 | 0.00 | 0.00 | 0.00 | 54 | 1002.0 |
| 20260504025406 | 58 | 246 | 0.0 | 0.0 | 0.00 | 0.00 | 0.00 | 53 | 1002.1 |
| 20260504024905 | 58 | 60 | 0.0 | 2.0 | 0.00 | 0.00 | 0.00 | 53 | 1002.1 |
| 20260504024404 | 58 | 282 | 0.0 | 2.0 | 0.00 | 0.00 | 0.00 | 54 | 1002.1 |
| 20260504023903 | 58 | 72 | 0.0 | 2.0 | 0.00 | 0.00 | 0.00 | 53 | 1002.1 |
| 20260504023403 | 58 | 30 | 0.0 | 2.0 | 0.00 | 0.00 | 0.00 | 53 | 1002.1 |
| 20260504022901 | 58 | 60 | 0.0 | 2.0 | 0.00 | 0.00 | 0.00 | 53 | 1002.1 |
| 20260504022401 | 58 | 37 | 0.0 | 0.0 | 0.00 | 0.00 | 0.00 | 53 | 1002.1 |
| 20260504021859 | 58 | 36 | 0.0 | 2.0 | 0.00 | 0.00 | 0.00 | 52 | 1002.1 |
| 20260504021359 | 58 | 37 | 0.0 | 0.0 | 0.00 | 0.00 | 0.00 | 52 | 1002.1 |
| 20260504020858 | 59 | 38 | 0.0 | 0.0 | 0.00 | 0.00 | 0.00 | 52 | 1002.2 |
| 20260504020358 | 59 | 354 | 0.0 | 1.0 | 0.00 | 0.00 | 0.00 | 51 | 1002.2 |
| 20260504015856 | 59 | 354 | 0.0 | 1.0 | 0.00 | 0.00 | 0.00 | 52 | 1002.2 |
| 20260504015355 | 60 | 264 | 0.0 | 1.0 | 0.00 | 0.00 | 0.00 | 50 | 1002.3 |
| 20260504014854 | 60 | 258 | 0.0 | 2.0 | 0.00 | 0.00 | 0.00 | 50 | 1002.3 |
| 20260504014353 | 60 | 60 | 0.0 | 0.0 | 0.00 | 0.00 | 0.00 | 49 | 1002.2 |
| 20260504013852 | 60 | 284 | 0.0 | 0.0 | 0.00 | 0.00 | 0.00 | 49 | 1002.3 |
| 20260504013351 | 60 | 83 | 0.0 | 2.0 | 0.00 | 0.00 | 0.00 | 48 | 1002.2 |
| 20260504012850 | 61 | 270 | 0.0 | 2.0 | 0.00 | 0.00 | 0.00 | 48 | 1002.2 |
| 20260504012349 | 61 | 348 | 0.0 | 2.0 | 0.00 | 0.00 | 0.00 | 47 | 1002.2 |
| 20260504011848 | 61 | 264 | 0.0 | 2.0 | 0.00 | 0.00 | 0.00 | 47 | 1002.2 |
| 20260504011347 | 60 | 252 | 0.0 | 2.0 | 0.00 | 0.00 | 0.00 | 48 | 1002.1 |
| 20260504010846 | 60 | 18 | 0.0 | 1.0 | 0.00 | 0.00 | 0.00 | 48 | 1002.1 |
| 20260504010345 | 60 | 270 | 0.0 | 0.0 | 0.00 | 0.00 | 0.00 | 49 | 1002.1 |
| 20260504005844 | 61 | 269 | 0.0 | 0.0 | 0.00 | 0.00 | 0.00 | 47 | 1002.0 |
| 20260504005343 | 61 | 261 | 0.0 | 1.0 | 0.00 | 0.00 | 0.00 | 47 | 1002.0 |
| 20260504004843 | 61 | 286 | 0.0 | 0.0 | 0.00 | 0.00 | 0.00 | 48 | 1002.0 |
| 20260504004342 | 61 | 252 | 0.0 | 2.0 | 0.00 | 0.00 | 0.00 | 48 | 1002.0 |
| 20260504003841 | 61 | 278 | 1.0 | 2.0 | 0.00 | 0.00 | 0.00 | 48 | 1002.0 |
| 20260504003340 | 61 | 336 | 0.0 | 2.0 | 0.00 | 0.00 | 0.00 | 47 | 1001.9 |
| 20260504002839 | 62 | 306 | 1.0 | 3.0 | 0.00 | 0.00 | 0.00 | 47 | 1001.9 |
| 20260504002338 | 62 | 72 | 1.0 | 3.0 | 0.00 | 0.00 | 0.00 | 46 | 1001.9 |
| 20260504001837 | 62 | 324 | 2.0 | 3.0 | 0.00 | 0.00 | 0.00 | 46 | 1001.9 |
| 20260504001336 | 62 | 266 | 0.0 | 2.0 | 0.00 | 0.00 | 0.00 | 45 | 1002.0 |
| 20260504000835 | 63 | 358 | 0.0 | 3.0 | 0.00 | 0.00 | 0.00 | 45 | 1001.9 |
| 20260504000334 | 63 | 324 | 0.0 | 0.0 | 0.00 | 0.00 | 0.00 | 45 | 1002.0 |
| 20260503235833 | 63 | 294 | 1.0 | 3.0 | 0.00 | 0.00 | 0.00 | 44 | 1002.0 |
| 20260503235332 | 64 | 144 | 0.0 | 2.0 | 0.00 | 0.00 | 0.00 | 43 | 1002.0 |
| 20260503234831 | 64 | 246 | 0.0 | 1.0 | 0.00 | 0.00 | 0.00 | 42 | 1001.9 |
| 20260503234330 | 64 | 138 | 0.0 | 2.0 | 0.00 | 0.00 | 0.00 | 42 | 1001.9 |
| 20260503233829 | 65 | 275 | 0.0 | 2.0 | 0.00 | 0.00 | 0.00 | 42 | 1002.0 |
| 20260503233329 | 64 | 280 | 1.0 | 2.0 | 0.00 | 0.00 | 0.00 | 42 | 1002.0 |
| 20260503232828 | 65 | 102 | 1.0 | 3.0 | 0.00 | 0.00 | 0.00 | 42 | 1002.0 |
| 20260503232326 | 65 | 218 | 1.0 | 2.0 | 0.00 | 0.00 | 0.00 | 42 | 1002.0 |
| 20260503231826 | 65 | 275 | 1.0 | 3.0 | 0.00 | 0.00 | 0.00 | 41 | 1002.0 |
| 20260503231325 | 65 | 48 | 1.0 | 3.0 | 0.00 | 0.00 | 0.00 | 41 | 1002.0 |
| 20260503230824 | 65 | 42 | 1.0 | 2.0 | 0.00 | 0.00 | 0.00 | 41 | 1001.9 |
| 20260503230323 | 65 | 166 | 1.0 | 3.0 | 0.00 | 0.00 | 0.00 | 40 | 1002.0 |
| 20260503225822 | 65 | 342 | 1.0 | 5.0 | 0.00 | 0.00 | 0.00 | 40 | 1002.0 |
| 20260503225321 | 66 | 287 | 2.0 | 7.0 | 0.00 | 0.00 | 0.00 | 40 | 1002.0 |
| 20260503224820 | 66 | 279 | 1.0 | 4.0 | 0.00 | 0.00 | 0.00 | 40 | 1001.9 |
| 20260503224319 | 66 | 334 | 2.0 | 5.0 | 0.00 | 0.00 | 0.00 | 39 | 1001.9 |
| 20260503223819 | 66 | 242 | 1.0 | 4.0 | 0.00 | 0.00 | 0.00 | 40 | 1002.0 |
| 20260503223318 | 66 | 72 | 1.0 | 4.0 | 0.00 | 0.00 | 0.00 | 40 | 1001.9 |
| 20260503222817 | 66 | 144 | 2.0 | 3.0 | 0.00 | 0.00 | 0.00 | 39 | 1001.9 |
| 20260503222315 | 66 | 261 | 2.0 | 4.0 | 0.00 | 0.00 | 0.00 | 39 | 1001.9 |
| 20260503221815 | 66 | 253 | 2.0 | 4.0 | 0.00 | 0.00 | 0.00 | 40 | 1002.0 |
| 20260503221314 | 66 | 276 | 2.0 | 4.0 | 0.00 | 0.00 | 0.00 | 40 | 1002.0 |
| 20260503220813 | 66 | 32 | 2.0 | 4.0 | 0.00 | 0.00 | 0.00 | 39 | 1002.0 |
| 20260503220312 | 66 | 6 | 2.0 | 4.0 | 0.00 | 0.00 | 0.00 | 39 | 1002.0 |
| 20260503215811 | 67 | 129 | 1.0 | 2.0 | 0.00 | 0.00 | 0.00 | 39 | 1002.1 |
| 20260503215310 | 67 | 263 | 1.0 | 5.0 | 0.00 | 0.00 | 0.00 | 39 | 1002.1 |
| 20260503214810 | 67 | 42 | 1.0 | 3.0 | 0.00 | 0.00 | 0.00 | 38 | 1002.1 |
| 20260503214308 | 67 | 248 | 1.0 | 3.0 | 0.00 | 0.00 | 0.00 | 38 | 1002.1 |
| 20260503213807 | 67 | 270 | 2.0 | 4.0 | 0.00 | 0.00 | 0.00 | 38 | 1002.0 |
| 20260503213307 | 67 | 282 | 2.0 | 5.0 | 0.00 | 0.00 | 0.00 | 38 | 1002.1 |
| 20260503212806 | 67 | 25 | 2.0 | 5.0 | 0.00 | 0.00 | 0.00 | 37 | 1002.1 |
| 20260503212305 | 68 | 71 | 1.0 | 6.0 | 0.00 | 0.00 | 0.00 | 37 | 1002.1 |
| 20260503211804 | 68 | 228 | 2.0 | 5.0 | 0.00 | 0.00 | 0.00 | 37 | 1002.1 |
| 20260503211303 | 68 | 260 | 2.0 | 4.0 | 0.00 | 0.00 | 0.00 | 37 | 1002.1 |
| 20260503210802 | 68 | 263 | 2.0 | 4.0 | 0.00 | 0.00 | 0.00 | 36 | 1002.2 |
| 20260503210301 | 68 | 144 | 2.0 | 3.0 | 0.00 | 0.00 | 0.00 | 36 | 1002.2 |
| 20260503205801 | 68 | 297 | 1.0 | 2.0 | 0.00 | 0.00 | 0.00 | 35 | 1002.2 |